createdAt,value
2018-11-14T00:01:06.818Z,101219.02
2018-11-14T00:03:34.292Z,101223.19
2018-11-14T00:06:02.233Z,101221.78
2018-11-14T00:08:29.705Z,101227.66
2018-11-14T00:10:57.197Z,101224.70
2018-11-14T00:13:24.696Z,101219.00
2018-11-14T00:15:53.633Z,101215.54
2018-11-14T00:18:22.445Z,101213.63
2018-11-14T00:20:49.935Z,101222.23
2018-11-14T00:23:17.446Z,101219.66
2018-11-14T00:25:45.359Z,101212.31
2018-11-14T00:28:12.850Z,101206.62
2018-11-14T00:30:40.336Z,101206.69
2018-11-14T00:33:07.862Z,101215.23
2018-11-14T00:35:35.855Z,101205.69
2018-11-14T00:38:03.331Z,101200.48
2018-11-14T00:40:30.838Z,101197.90
2018-11-14T00:42:58.794Z,101196.19
2018-11-14T00:45:26.428Z,101194.86
2018-11-14T00:47:53.924Z,101196.26
2018-11-14T00:50:21.941Z,101195.42
2018-11-14T00:52:49.841Z,101189.23
2018-11-14T00:55:20.427Z,101189.30
2018-11-14T00:57:49.105Z,101194.72
2018-11-14T01:00:19.944Z,101196.89
2018-11-14T01:02:47.549Z,101194.62
2018-11-14T01:05:15.695Z,101193.78
2018-11-14T01:07:43.456Z,101192.91
2018-11-14T01:10:12.952Z,101195.18
2018-11-14T01:12:40.735Z,101193.47
2018-11-14T01:15:08.225Z,101198.30
2018-11-14T01:17:35.730Z,101202.28
2018-11-14T01:20:03.524Z,101199.23
2018-11-14T01:22:31.027Z,101209.34
2018-11-14T01:24:58.513Z,101209.34
2018-11-14T01:27:26.010Z,101211.12
2018-11-14T01:29:53.519Z,101216.44
2018-11-14T01:32:21.089Z,101212.53
2018-11-14T01:34:48.597Z,101213.41
2018-11-14T01:37:16.119Z,101212.25
2018-11-14T01:39:46.321Z,101208.80
2018-11-14T01:42:13.802Z,101212.89
2018-11-14T01:44:41.319Z,101220.05
2018-11-14T01:47:09.255Z,101218.27
2018-11-14T01:49:36.740Z,101219.11
2018-11-14T01:52:04.221Z,101218.27
2018-11-14T01:54:31.697Z,101209.53
2018-11-14T01:56:59.605Z,101203.41
2018-11-14T01:59:27.094Z,101210.16
2018-11-14T02:01:54.592Z,101204.92
2018-11-14T02:04:22.384Z,101209.47
2018-11-14T02:06:49.872Z,101202.44
2018-11-14T02:09:17.353Z,101207.83
2018-11-14T02:11:44.840Z,101213.39
2018-11-14T02:14:12.703Z,101214.09
2018-11-14T02:16:40.173Z,101218.63
2018-11-14T02:19:07.664Z,101220.52
2018-11-14T02:21:35.161Z,101225.97
2018-11-14T02:24:03.065Z,101225.59
2018-11-14T02:26:30.569Z,101225.91
2018-11-14T02:28:58.069Z,101227.06
2018-11-14T02:31:25.859Z,101227.38
2018-11-14T02:33:53.345Z,101231.74
2018-11-14T02:36:20.836Z,101231.36
2018-11-14T02:38:48.329Z,101224.26
2018-11-14T02:41:16.265Z,101221.50
2018-11-14T02:43:43.777Z,101218.95
2018-11-14T02:46:11.277Z,101213.32
2018-11-14T02:48:39.049Z,101205.59
2018-11-14T02:51:06.552Z,101196.05
2018-11-14T02:53:34.049Z,101196.61
2018-11-14T02:56:01.525Z,101199.45
2018-11-14T02:58:29.308Z,101193.02
2018-11-14T03:00:57.441Z,101196.30
2018-11-14T03:03:24.961Z,101193.75
2018-11-14T03:05:52.437Z,101180.09
2018-11-14T03:08:21.273Z,101187.11
2018-11-14T03:10:48.775Z,101186.23
2018-11-14T03:13:16.273Z,101180.16
2018-11-14T03:15:44.821Z,101185.15
2018-11-14T03:18:12.651Z,101176.41
2018-11-14T03:20:40.137Z,101181.41
2018-11-14T03:23:07.665Z,101183.05
2018-11-14T03:25:35.174Z,101175.23
2018-11-14T03:28:03.115Z,101181.48
2018-11-14T03:30:30.665Z,101177.67
2018-11-14T03:32:58.163Z,101178.22
2018-11-14T03:35:27.152Z,101175.33
2018-11-14T03:37:54.655Z,101178.15
2018-11-14T03:40:22.176Z,101176.95
2018-11-14T03:42:49.994Z,101180.17
2018-11-14T03:45:17.497Z,101180.80
2018-11-14T03:47:45.015Z,101178.59
2018-11-14T03:52:43.760Z,101183.06
2018-11-14T03:55:11.281Z,101184.22
2018-11-14T03:57:38.889Z,101185.73
2018-11-14T04:00:06.451Z,101177.20
2018-11-14T04:02:34.343Z,101172.21
2018-11-14T04:05:01.840Z,101174.87
2018-11-14T04:07:29.361Z,101179.69
2018-11-14T04:09:57.328Z,101171.90
2018-11-14T04:12:24.882Z,101166.34
2018-11-14T04:14:52.371Z,101166.02
2018-11-14T04:17:19.841Z,101172.27
2018-11-14T04:19:47.760Z,101159.17
2018-11-14T04:22:15.253Z,101165.03
2018-11-14T04:24:42.739Z,101163.84
2018-11-14T04:27:10.222Z,101157.00
2018-11-14T04:29:38.017Z,101160.27
2018-11-14T04:32:05.505Z,101151.05
2018-11-14T04:34:33.001Z,101147.31
2018-11-14T04:37:01.452Z,101146.12
2018-11-14T04:39:29.292Z,101150.62
2018-11-14T04:41:56.795Z,101139.78
2018-11-14T04:44:24.320Z,101140.34
2018-11-14T04:46:51.810Z,101145.23
2018-11-14T04:49:19.728Z,101144.45
2018-11-14T04:51:47.279Z,101150.31
2018-11-14T04:54:14.810Z,101146.89
2018-11-14T04:56:43.741Z,101141.65
2018-11-14T04:59:11.376Z,101142.98
2018-11-14T05:01:38.912Z,101140.45
2018-11-14T05:04:06.764Z,101143.77
2018-11-14T05:06:34.258Z,101141.73
2018-11-14T05:09:01.782Z,101140.14
2018-11-14T05:11:29.287Z,101149.59
2018-11-14T05:13:57.216Z,101151.05
2018-11-14T05:16:24.773Z,101148.56
2018-11-14T05:18:52.277Z,101152.77
2018-11-14T05:21:20.131Z,101151.50
2018-11-14T05:23:47.630Z,101154.83
2018-11-14T05:26:15.124Z,101156.16
2018-11-14T05:28:42.915Z,101152.20
2018-11-14T05:31:10.413Z,101153.58
2018-11-14T05:33:37.893Z,101154.02
2018-11-14T05:36:05.703Z,101146.51
2018-11-14T05:38:33.585Z,101148.72
2018-11-14T05:41:01.058Z,101146.41
2018-11-14T05:43:28.933Z,101147.77
2018-11-14T05:45:56.419Z,101145.48
2018-11-14T05:48:23.913Z,101147.62
2018-11-14T05:50:52.744Z,101142.26
2018-11-14T05:53:20.240Z,101137.41
2018-11-14T05:55:47.738Z,101139.13
2018-11-14T05:58:15.674Z,101140.39
2018-11-14T06:00:43.168Z,101137.81
2018-11-14T06:03:10.653Z,101135.25
2018-11-14T06:05:38.451Z,101136.30
2018-11-14T06:08:05.977Z,101129.44
2018-11-14T06:10:33.504Z,101132.59
2018-11-14T06:13:01.472Z,101134.34
2018-11-14T06:15:31.306Z,101133.75
2018-11-14T06:17:58.789Z,101134.71
2018-11-14T06:20:26.668Z,101136.43
2018-11-14T06:22:54.628Z,101138.11
2018-11-14T06:25:23.402Z,101132.87
2018-11-14T06:27:52.432Z,101133.05
2018-11-14T06:30:20.414Z,101135.86
2018-11-14T06:32:48.035Z,101136.52
2018-11-14T06:35:16.229Z,101145.09
2018-11-14T06:37:43.812Z,101142.64
2018-11-14T06:40:18.094Z,101147.73
2018-11-14T06:42:45.898Z,101145.79
2018-11-14T06:45:15.646Z,101151.09
2018-11-14T06:47:44.490Z,101151.60
2018-11-14T06:50:12.974Z,101157.51
2018-11-14T06:52:41.039Z,101160.27
2018-11-14T06:55:08.571Z,101159.98
2018-11-14T06:57:36.481Z,101167.62
2018-11-14T07:00:05.112Z,101165.94
2018-11-14T07:02:38.335Z,101172.94
2018-11-14T07:05:00.857Z,101167.66
2018-11-14T07:07:28.509Z,101165.67
2018-11-14T07:09:57.350Z,101162.39
2018-11-14T07:12:25.205Z,101165.63
2018-11-14T07:14:52.685Z,101169.20
2018-11-14T07:17:20.223Z,101167.02
2018-11-14T07:19:48.184Z,101171.12
2018-11-14T07:22:15.729Z,101171.18
2018-11-14T07:24:43.290Z,101170.30
2018-11-14T07:27:11.159Z,101175.09
2018-11-14T07:29:39.525Z,101178.97
2018-11-14T07:32:07.941Z,101179.84
2018-11-14T07:34:35.794Z,101180.77
2018-11-14T07:37:03.278Z,101188.23
2018-11-14T07:39:30.765Z,101197.83
2018-11-14T07:41:58.583Z,101198.22
2018-11-14T07:44:26.048Z,101199.83
2018-11-14T07:46:54.541Z,101203.00
2018-11-14T07:49:22.392Z,101202.85
2018-11-14T07:51:53.572Z,101209.75
2018-11-14T07:54:24.768Z,101210.14
2018-11-14T07:56:55.594Z,101217.93
2018-11-14T07:59:23.088Z,101224.44
2018-11-14T08:01:50.590Z,101216.83
2018-11-14T08:04:18.742Z,101229.86
2018-11-14T08:06:46.232Z,101223.04
2018-11-14T08:09:13.700Z,101224.60
2018-11-14T08:11:41.593Z,101220.05
2018-11-14T08:14:09.072Z,101210.64
2018-11-14T08:16:37.148Z,101214.48
2018-11-14T08:19:05.093Z,101204.20
2018-11-14T08:21:32.537Z,101202.63
2018-11-14T08:24:01.663Z,101210.81
2018-11-14T08:26:29.626Z,101212.31
2018-11-14T08:28:58.146Z,101215.06
2018-11-14T08:31:25.642Z,101207.31
2018-11-14T08:33:53.610Z,101215.80
2018-11-14T08:36:21.121Z,101213.53
2018-11-14T08:38:48.621Z,101212.69
2018-11-14T08:41:16.616Z,101213.08
2018-11-14T08:43:45.081Z,101208.84
2018-11-14T08:46:12.565Z,101210.55
2018-11-14T08:48:40.542Z,101209.30
2018-11-14T08:51:08.247Z,101210.10
2018-11-14T08:53:35.747Z,101202.90
2018-11-14T08:56:05.442Z,101205.17
2018-11-14T08:58:32.992Z,101196.33
2018-11-14T09:01:00.512Z,101197.58
2018-11-14T09:03:28.445Z,101192.58
2018-11-14T09:05:56.783Z,101191.06
2018-11-14T09:08:24.275Z,101201.42
2018-11-14T09:10:52.306Z,101189.64
2018-11-14T09:13:19.800Z,101187.16
2018-11-14T09:15:47.916Z,101189.61
2018-11-14T09:18:15.869Z,101194.63
2018-11-14T09:20:44.133Z,101191.55
2018-11-14T09:23:11.688Z,101188.42
2018-11-14T09:25:39.620Z,101193.55
2018-11-14T09:28:09.005Z,101181.63
2018-11-14T09:30:36.502Z,101181.02
2018-11-14T09:33:04.570Z,101180.56
2018-11-14T09:35:32.022Z,101186.36
2018-11-14T09:38:00.701Z,101180.64
2018-11-14T09:40:29.453Z,101183.66
2018-11-14T09:42:57.514Z,101187.61
2018-11-14T09:45:26.197Z,101178.12
2018-11-14T09:47:55.104Z,101170.20
2018-11-14T09:50:23.744Z,101161.95
2018-11-14T09:53:06.186Z,101157.97
2018-11-14T09:55:34.097Z,101141.27
2018-11-14T09:58:01.654Z,101142.16
2018-11-14T10:00:34.006Z,101135.90
2018-11-14T10:03:01.893Z,101134.12
2018-11-14T10:05:29.392Z,101135.23
2018-11-14T10:07:58.078Z,101134.18
2018-11-14T10:10:26.387Z,101136.42
2018-11-14T10:12:53.885Z,101130.19
2018-11-14T10:15:23.379Z,101135.31
2018-11-14T10:17:51.270Z,101128.58
2018-11-14T10:20:20.984Z,101119.03
2018-11-14T10:22:48.530Z,101111.61
2018-11-14T10:25:18.767Z,101107.84
2018-11-14T10:27:46.779Z,101108.85
2018-11-14T10:30:15.599Z,101110.45
2018-11-14T10:32:44.335Z,101114.77
2018-11-14T10:35:12.208Z,101116.65
2018-11-14T10:37:43.553Z,101114.58
2018-11-14T10:40:14.512Z,101118.00
2018-11-14T10:42:43.471Z,101114.77
2018-11-14T10:45:11.677Z,101115.45
2018-11-14T10:47:39.594Z,101115.06
2018-11-14T10:50:08.836Z,101109.02
2018-11-14T10:52:38.808Z,101109.44
2018-11-14T10:55:07.417Z,101110.66
2018-11-14T10:57:35.295Z,101109.66
2018-11-14T11:00:03.535Z,101109.96
2018-11-14T11:02:39.268Z,101107.22
2018-11-14T11:05:13.045Z,101096.62
2018-11-14T11:07:45.846Z,101092.86
2018-11-14T11:10:18.472Z,101090.56
2018-11-14T11:12:51.484Z,101088.23
2018-11-14T11:17:27.466Z,101089.61
2018-11-14T11:19:55.669Z,101084.17
2018-11-14T11:22:24.337Z,101087.05
2018-11-14T11:24:53.374Z,101082.39
2018-11-14T11:27:20.883Z,101083.25
2018-11-14T11:29:50.104Z,101091.40
2018-11-14T11:32:21.566Z,101089.32
2018-11-14T11:34:51.574Z,101089.59
2018-11-14T11:37:19.418Z,101088.67
2018-11-14T11:39:48.085Z,101094.18
2018-11-14T11:42:15.594Z,101094.53
2018-11-14T11:44:43.458Z,101095.44
2018-11-14T11:47:14.505Z,101086.98
2018-11-14T11:49:41.993Z,101075.77
2018-11-14T11:52:10.898Z,101074.49
2018-11-14T11:54:38.418Z,101070.44
2018-11-14T11:57:06.860Z,101074.09
2018-11-14T11:59:34.850Z,101081.67
2018-11-14T12:02:02.342Z,101091.12
2018-11-14T12:04:30.135Z,101091.13
2018-11-14T12:06:58.377Z,101092.18
2018-11-14T12:09:25.922Z,101082.70
2018-11-14T12:11:53.513Z,101079.28
2018-11-14T12:14:21.339Z,101076.16
2018-11-14T12:16:50.127Z,101083.25
2018-11-14T12:19:17.757Z,101080.44
2018-11-14T12:21:46.319Z,101083.43
2018-11-14T12:24:13.833Z,101078.48
2018-11-14T12:26:41.336Z,101083.64
2018-11-14T12:29:10.749Z,101081.21
2018-11-14T12:31:39.450Z,101095.14
2018-11-14T12:34:06.965Z,101090.78
2018-11-14T12:36:34.800Z,101095.05
2018-11-14T12:39:02.276Z,101090.56
2018-11-14T12:41:29.761Z,101088.00
2018-11-14T12:43:57.577Z,101091.41
2018-11-14T12:46:25.286Z,101083.01
2018-11-14T12:48:52.813Z,101076.06
2018-11-14T12:51:21.658Z,101072.16
2018-11-14T12:53:49.154Z,101060.10
2018-11-14T12:56:16.689Z,101053.77
2018-11-14T12:58:45.446Z,101040.23
2018-11-14T13:01:12.941Z,101039.73
2018-11-14T13:03:40.410Z,101032.90
2018-11-14T13:06:08.295Z,101039.14
2018-11-14T13:08:36.756Z,101037.40
2018-11-14T13:11:04.773Z,101038.38
2018-11-14T13:13:37.679Z,101040.08
2018-11-14T13:16:20.273Z,101030.11
2018-11-14T13:18:48.850Z,101049.49
2018-11-14T13:21:16.383Z,101037.28
2018-11-14T13:23:45.021Z,101040.94
2018-11-14T13:26:13.646Z,101042.28
2018-11-14T13:28:42.629Z,101046.05
2018-11-14T13:31:10.943Z,101047.90
2018-11-14T13:33:38.763Z,101039.50
2018-11-14T13:36:07.180Z,101042.40
2018-11-14T13:38:34.665Z,101039.36
2018-11-14T13:41:02.590Z,101044.72
2018-11-14T13:43:32.617Z,101039.36
2018-11-14T13:46:00.111Z,101043.98
2018-11-14T13:48:28.006Z,101042.66
2018-11-14T13:50:55.695Z,101038.88
2018-11-14T13:53:23.054Z,101041.42
2018-11-14T13:55:50.981Z,101042.66
2018-11-14T13:58:18.475Z,101035.84
2018-11-14T14:00:46.813Z,101043.16
2018-11-14T14:03:14.840Z,101039.35
2018-11-14T14:05:43.205Z,101037.79
2018-11-14T14:08:10.765Z,101048.52
2018-11-14T14:10:38.614Z,101042.65
2018-11-14T14:13:06.218Z,101047.64
2018-11-14T14:15:33.797Z,101045.69
2018-11-14T14:18:01.641Z,101040.33
2018-11-14T14:20:29.765Z,101038.38
2018-11-14T14:22:57.487Z,101038.13
2018-11-14T14:25:25.398Z,101034.58
2018-11-14T14:27:53.493Z,101035.45
2018-11-14T14:30:22.220Z,101035.30
2018-11-14T14:32:51.892Z,101033.86
2018-11-14T14:35:20.499Z,101034.94
2018-11-14T14:37:48.002Z,101033.70
2018-11-14T14:40:18.238Z,101037.53
2018-11-14T14:42:47.705Z,101034.80
2018-11-14T14:45:17.700Z,101035.86
2018-11-14T14:47:45.649Z,101029.84
2018-11-14T14:50:17.038Z,101031.36
2018-11-14T14:52:45.124Z,101028.38
2018-11-14T14:55:14.217Z,101028.90
2018-11-14T14:57:43.677Z,101021.30
2018-11-14T15:00:27.480Z,101024.24
2018-11-14T15:02:55.009Z,101019.30
2018-11-14T15:05:22.546Z,101017.87
2018-11-14T15:07:51.151Z,101020.47
2018-11-14T15:10:20.756Z,101016.72
2018-11-14T15:12:49.488Z,101012.90
2018-11-14T15:15:18.933Z,101010.85
2018-11-14T15:17:46.544Z,101007.59
2018-11-14T15:20:15.332Z,101010.77
2018-11-14T15:22:43.605Z,101011.83
2018-11-14T15:25:12.561Z,101017.47
2018-11-14T15:27:40.682Z,101011.19
2018-11-14T15:30:08.667Z,101014.06
2018-11-14T15:32:36.173Z,101006.71
2018-11-14T15:35:03.796Z,101006.01
2018-11-14T15:37:31.721Z,101007.47
2018-11-14T15:40:00.845Z,101011.61
2018-11-14T15:42:28.414Z,101007.70
2018-11-14T15:44:57.052Z,101009.34
2018-11-14T15:47:25.176Z,101003.86
2018-11-14T15:49:52.837Z,101001.11
2018-11-14T15:52:22.341Z,101002.16
2018-11-14T15:54:49.838Z,100998.73
2018-11-14T15:57:17.386Z,100998.73
2018-11-14T15:59:46.155Z,100999.69
2018-11-14T16:02:13.698Z,100989.98
2018-11-14T16:04:41.274Z,100989.86
2018-11-14T16:07:09.638Z,100989.68
2018-11-14T16:09:38.087Z,100984.11
2018-11-14T16:12:05.607Z,100984.48
2018-11-14T16:14:33.508Z,100988.75
2018-11-14T16:17:00.982Z,100985.16
2018-11-14T16:19:28.482Z,100980.66
2018-11-14T16:21:56.314Z,100982.27
2018-11-14T16:24:23.899Z,100972.28
2018-11-14T16:26:52.392Z,100976.92
2018-11-14T16:29:20.930Z,100977.77
2018-11-14T16:31:48.476Z,100973.46
2018-11-14T16:34:18.602Z,100973.44
2018-11-14T16:36:46.640Z,100974.44
2018-11-14T16:39:14.521Z,100977.94
2018-11-14T16:41:42.055Z,100981.05
2018-11-14T16:44:10.622Z,100986.78
2018-11-14T16:46:39.310Z,100985.12
2018-11-14T16:49:07.800Z,100991.56
2018-11-14T16:51:35.618Z,100993.69
2018-11-14T16:54:04.731Z,100987.49
2018-11-14T16:56:32.256Z,100992.19
2018-11-14T16:59:00.474Z,100981.45
2018-11-14T17:01:27.988Z,100980.58
2018-11-14T17:03:55.482Z,100986.84
2018-11-14T17:06:23.420Z,100980.77
2018-11-14T17:08:51.517Z,100979.13
2018-11-14T17:11:19.028Z,100976.66
2018-11-14T17:13:48.104Z,100975.22
2018-11-14T17:16:15.603Z,100977.42
2018-11-14T17:18:43.119Z,100971.23
2018-11-14T17:21:13.588Z,100969.07
2018-11-14T17:23:41.355Z,100973.52
2018-11-14T17:26:08.869Z,100975.02
2018-11-14T17:28:37.094Z,100970.80
2018-11-14T17:31:04.613Z,100969.99
2018-11-14T17:33:32.373Z,100974.30
2018-11-14T17:36:01.465Z,100977.31
2018-11-14T17:38:28.937Z,100979.73
2018-11-14T17:40:57.405Z,100984.41
2018-11-14T17:43:27.252Z,100982.88
2018-11-14T17:45:54.729Z,100984.91
2018-11-14T17:48:22.992Z,100981.64
2018-11-14T17:50:54.525Z,100990.75
2018-11-14T17:53:22.331Z,100979.63
2018-11-14T17:55:49.814Z,100979.09
2018-11-14T17:58:18.188Z,100982.45
2018-11-14T18:00:46.397Z,100991.97
2018-11-14T18:03:15.366Z,100993.92
2018-11-14T18:05:45.061Z,100995.49
2018-11-14T18:08:12.589Z,101000.93
2018-11-14T18:10:41.054Z,101002.49
2018-11-14T18:13:10.189Z,101006.09
2018-11-14T18:15:37.707Z,101005.94
2018-11-14T18:18:06.552Z,101005.30
2018-11-14T18:20:35.153Z,100996.97
2018-11-14T18:25:47.524Z,101002.33
2018-11-14T18:28:15.116Z,101000.55
2018-11-14T18:30:42.770Z,100999.69
2018-11-14T18:33:11.477Z,100999.69
2018-11-14T18:35:39.827Z,101002.50
2018-11-14T18:38:07.359Z,100998.20
2018-11-14T18:40:36.517Z,100995.72
2018-11-14T18:43:06.486Z,100992.05
2018-11-14T18:45:36.312Z,100987.83
2018-11-14T18:48:05.307Z,100980.53
2018-11-14T18:50:33.859Z,100988.92
2018-11-14T18:53:03.628Z,100987.77
2018-11-14T18:55:33.610Z,100993.91
2018-11-14T18:58:02.034Z,100986.97
2018-11-14T19:00:32.098Z,100985.03
2018-11-14T19:02:59.797Z,100990.94
2018-11-14T19:05:27.470Z,100987.59
2018-11-14T19:07:57.563Z,100978.94
2018-11-14T19:10:27.160Z,100979.55
2018-11-14T19:12:55.488Z,100983.75
2018-11-14T19:15:26.406Z,100990.17
2018-11-14T19:17:54.015Z,100987.69
2018-11-14T19:20:23.244Z,100985.81
2018-11-14T19:22:52.096Z,100988.75
2018-11-14T19:25:21.843Z,100993.49
2018-11-14T19:27:50.399Z,100993.39
2018-11-14T19:30:20.371Z,100988.77
2018-11-14T19:32:50.148Z,100982.05
2018-11-14T19:35:17.864Z,100978.68
2018-11-14T19:37:47.870Z,100980.55
2018-11-14T19:40:18.469Z,100979.44
2018-11-14T19:42:46.843Z,100973.11
2018-11-14T19:45:18.185Z,100979.84
2018-11-14T19:47:46.925Z,100976.42
2018-11-14T19:50:17.461Z,100971.72
2018-11-14T19:52:46.516Z,100969.96
2018-11-14T19:55:15.189Z,100970.78
2018-11-14T19:57:43.703Z,100970.56
2018-11-14T20:00:11.602Z,100972.98
2018-11-14T20:02:41.915Z,100974.31
2018-11-14T20:05:09.868Z,100966.11
2018-11-14T20:07:40.444Z,100971.08
2018-11-14T20:10:08.752Z,100971.23
2018-11-14T20:12:37.454Z,100971.30
2018-11-14T20:15:05.392Z,100967.88
2018-11-14T20:17:33.928Z,100966.55
2018-11-14T20:20:01.411Z,100969.59
2018-11-14T20:22:30.209Z,100969.07
2018-11-14T20:24:57.709Z,100963.36
2018-11-14T20:27:27.989Z,100962.97
2018-11-14T20:29:55.824Z,100961.97
2018-11-14T20:32:23.355Z,100962.23
2018-11-14T20:34:50.849Z,100969.95
2018-11-14T20:37:19.444Z,100964.27
2018-11-14T20:39:48.357Z,100960.05
2018-11-14T20:42:15.879Z,100964.62
2018-11-14T20:44:43.824Z,100964.39
2018-11-14T20:47:11.532Z,100964.58
2018-11-14T20:49:39.077Z,100962.53
2018-11-14T20:52:07.897Z,100957.41
2018-11-14T20:54:35.380Z,100960.11
2018-11-14T20:57:03.511Z,100956.30
2018-11-14T20:59:31.477Z,100958.55
2018-11-14T21:01:58.944Z,100956.13
2018-11-14T21:04:26.490Z,100954.92
2018-11-14T21:06:54.482Z,100957.19
2018-11-14T21:09:21.969Z,100954.09
2018-11-14T21:11:50.444Z,100954.09
2018-11-14T21:14:18.357Z,100951.05
2018-11-14T21:16:45.873Z,100952.05
2018-11-14T21:19:13.369Z,100941.59
2018-11-14T21:21:41.316Z,100945.27
2018-11-14T21:24:08.829Z,100955.96
2018-11-14T21:26:36.472Z,100953.47
2018-11-14T21:29:04.419Z,100958.64
2018-11-14T21:31:31.895Z,100954.56
2018-11-14T21:33:59.353Z,100943.47
2018-11-14T21:36:29.825Z,100949.52
2018-11-14T21:38:57.361Z,100947.25
2018-11-14T21:41:24.921Z,100947.57
2018-11-14T21:43:52.776Z,100949.30
2018-11-14T21:46:21.874Z,100952.74
2018-11-14T21:48:50.160Z,100943.42
2018-11-14T21:51:18.763Z,100952.86
2018-11-14T21:53:46.256Z,100948.63
2018-11-14T21:56:13.768Z,100945.64
2018-11-14T21:58:41.601Z,100950.53
2018-11-14T22:01:10.275Z,100945.06
2018-11-14T22:03:38.497Z,100944.72
2018-11-14T22:06:06.426Z,100940.42
2018-11-14T22:08:33.937Z,100936.55
2018-11-14T22:11:01.449Z,100935.23
2018-11-14T22:13:29.418Z,100932.11
2018-11-14T22:15:57.018Z,100929.47
2018-11-14T22:18:24.521Z,100928.23
2018-11-14T22:20:52.383Z,100922.28
2018-11-14T22:23:19.914Z,100919.70
2018-11-14T22:25:47.415Z,100921.11
2018-11-14T22:28:14.933Z,100918.58
2018-11-14T22:30:42.877Z,100921.41
2018-11-14T22:33:10.397Z,100920.23
2018-11-14T22:35:37.885Z,100911.58
2018-11-14T22:38:05.368Z,100913.48
2018-11-14T22:40:34.121Z,100915.00
2018-11-14T22:43:02.212Z,100911.63
2018-11-14T22:45:31.124Z,100917.41
2018-11-14T22:47:58.964Z,100916.23
2018-11-14T22:50:26.921Z,100916.28
2018-11-14T22:52:55.248Z,100922.53
2018-11-14T22:55:24.001Z,100917.78
2018-11-14T22:57:52.076Z,100920.09
2018-11-14T23:00:22.612Z,100923.78
2018-11-14T23:02:52.659Z,100927.45
2018-11-14T23:05:20.172Z,100922.36
2018-11-14T23:07:48.956Z,100925.67
2018-11-14T23:10:16.662Z,100919.57
2018-11-14T23:12:44.456Z,100921.81
2018-11-14T23:15:12.736Z,100914.43
2018-11-14T23:17:40.898Z,100913.64
2018-11-14T23:20:10.312Z,100915.41
2018-11-14T23:22:38.421Z,100921.13
2018-11-14T23:25:06.889Z,100918.97
2018-11-14T23:27:34.537Z,100924.24
2018-11-14T23:30:03.589Z,100918.57
2018-11-14T23:32:31.094Z,100914.53
2018-11-14T23:35:04.081Z,100918.83
2018-11-14T23:37:32.552Z,100920.15
2018-11-14T23:40:00.044Z,100927.22
2018-11-14T23:42:27.968Z,100928.64
2018-11-14T23:44:55.485Z,100929.13
2018-11-14T23:47:22.996Z,100932.28
2018-11-14T23:49:50.485Z,100928.77
2018-11-14T23:52:18.572Z,100924.81
2018-11-14T23:54:46.085Z,100923.50
2018-11-14T23:57:13.584Z,100924.81
2018-11-14T23:59:41.396Z,100923.50
